createdAt,value
2019-03-25T00:00:03.471Z,74.10
2019-03-25T00:10:03.402Z,74.34
2019-03-25T00:20:03.209Z,74.55
2019-03-25T00:30:03.681Z,74.90
2019-03-25T00:40:03.475Z,75.00
2019-03-25T00:50:03.413Z,75.11
2019-03-25T01:00:03.441Z,75.39
2019-03-25T01:10:03.180Z,75.52
2019-03-25T01:20:03.412Z,75.72
2019-03-25T01:30:03.702Z,75.63
2019-03-25T01:40:02.657Z,75.62
2019-03-25T01:50:02.528Z,75.19
2019-03-25T02:00:05.027Z,75.43
2019-03-25T02:10:02.566Z,75.18
2019-03-25T02:20:03.813Z,74.42
2019-03-25T02:30:03.411Z,74.83
2019-03-25T02:40:03.394Z,75.59
2019-03-25T03:00:03.447Z,76.58
2019-03-25T03:10:03.235Z,77.62
2019-03-25T03:20:03.158Z,78.13
2019-03-25T03:30:03.546Z,78.47
2019-03-25T03:40:03.307Z,78.65
2019-03-25T03:50:02.901Z,78.65
2019-03-25T04:00:04.168Z,78.71
2019-03-25T04:10:02.643Z,78.72
2019-03-25T04:20:02.692Z,79.30
2019-03-25T04:30:03.850Z,79.74
2019-03-25T04:40:03.974Z,80.45
2019-03-25T04:50:02.775Z,80.59
2019-03-25T05:00:04.384Z,80.60
2019-03-25T05:10:03.097Z,80.54
2019-03-25T05:20:03.157Z,80.29
2019-03-25T05:30:03.327Z,80.39
2019-03-25T05:40:03.556Z,80.93
2019-03-25T05:50:03.337Z,81.42
2019-03-25T06:00:03.437Z,81.00
2019-03-25T06:10:03.616Z,80.32
2019-03-25T06:20:02.733Z,78.64
2019-03-25T06:30:04.319Z,75.59
2019-03-25T06:40:03.426Z,73.12
2019-03-25T06:50:03.185Z,69.93
2019-03-25T07:00:03.606Z,69.61
2019-03-25T07:10:03.052Z,68.22
2019-03-25T07:20:02.893Z,68.26
2019-03-25T07:30:03.472Z,65.81
2019-03-25T07:40:02.949Z,64.42
2019-03-25T07:50:02.719Z,60.10
2019-03-25T08:00:14.239Z,59.28
2019-03-25T08:10:03.516Z,59.96
2019-03-25T08:20:03.344Z,57.50
2019-03-25T08:30:03.882Z,55.83
2019-03-25T08:40:03.080Z,54.29
2019-03-25T08:50:02.791Z,53.33
2019-03-25T09:00:04.265Z,53.55
2019-03-25T09:10:02.690Z,54.41
2019-03-25T09:20:02.576Z,53.13
2019-03-25T09:30:04.240Z,52.26
2019-03-25T09:40:02.617Z,50.51
2019-03-25T09:50:03.254Z,50.05
2019-03-25T10:00:04.164Z,48.99
2019-03-25T10:10:02.988Z,47.34
2019-03-25T10:20:02.916Z,45.34
2019-03-25T10:30:03.338Z,42.53
2019-03-25T10:40:03.545Z,42.50
2019-03-25T10:50:03.604Z,40.58
2019-03-25T11:00:04.618Z,38.61
2019-03-25T11:10:03.927Z,38.43
2019-03-25T11:20:03.111Z,38.34
2019-03-25T11:30:06.208Z,36.29
2019-03-25T11:40:03.851Z,37.04
2019-03-25T11:50:02.898Z,34.80
2019-03-25T12:00:09.128Z,34.98
2019-03-25T12:10:03.145Z,37.08
2019-03-25T12:20:03.312Z,39.71
2019-03-25T12:30:03.774Z,38.41
2019-03-25T12:40:02.729Z,40.69
2019-03-25T12:50:03.402Z,41.35
2019-03-25T13:00:04.149Z,41.37
2019-03-25T13:10:02.948Z,43.58
2019-03-25T13:20:02.886Z,51.39
2019-03-25T13:30:03.251Z,65.12
2019-03-25T13:40:03.810Z,60.07
2019-03-25T13:50:02.712Z,52.98
2019-03-25T14:00:04.443Z,52.77
2019-03-25T14:10:02.732Z,48.36
2019-03-25T14:20:03.590Z,50.46
2019-03-25T14:30:15.181Z,72.46
2019-03-25T14:40:02.847Z,81.08
2019-03-25T14:50:03.284Z,80.53
2019-03-25T15:00:03.815Z,77.97
2019-03-25T15:10:03.267Z,75.94
2019-03-25T15:20:03.042Z,73.30
2019-03-25T15:30:03.195Z,71.96
2019-03-25T15:40:03.419Z,66.27
2019-03-25T15:50:02.996Z,60.94
2019-03-25T16:00:03.829Z,61.31
2019-03-25T16:10:03.425Z,61.75
2019-03-25T16:20:03.238Z,62.22
2019-03-25T16:30:04.061Z,62.37
2019-03-25T16:40:03.610Z,63.85
2019-03-25T16:50:03.319Z,69.55
2019-03-25T17:00:03.420Z,77.16
2019-03-25T17:10:02.917Z,84.63
2019-03-25T17:20:03.085Z,82.49
2019-03-25T17:30:03.469Z,80.00
2019-03-25T17:40:03.455Z,77.19
2019-03-25T17:50:06.277Z,73.50
2019-03-25T18:00:03.170Z,70.25
2019-03-25T18:10:03.216Z,71.03
2019-03-25T18:20:03.449Z,70.84
2019-03-25T18:30:03.994Z,80.30
2019-03-25T18:40:02.646Z,85.80
2019-03-25T18:50:03.580Z,85.55
2019-03-25T19:00:04.020Z,83.04
2019-03-25T19:10:03.002Z,82.06
2019-03-25T19:20:02.967Z,82.07
2019-03-25T19:30:03.738Z,81.31
2019-03-25T19:40:03.328Z,83.43
2019-03-25T19:50:02.916Z,85.82
2019-03-25T20:00:03.782Z,85.47
2019-03-25T20:10:03.243Z,83.92
2019-03-25T20:20:03.479Z,82.21
2019-03-25T20:30:03.882Z,81.38
2019-03-25T20:40:02.898Z,79.38
2019-03-25T20:50:03.677Z,79.30
2019-03-25T21:00:03.355Z,80.35
2019-03-25T21:10:02.717Z,80.52
2019-03-25T21:20:02.757Z,80.73
2019-03-25T21:30:03.749Z,80.76
2019-03-25T21:40:03.362Z,80.88
2019-03-25T21:50:02.995Z,80.64
2019-03-25T22:00:04.060Z,80.70
2019-03-25T22:10:03.392Z,81.03
2019-03-25T22:20:03.387Z,80.64
2019-03-25T22:30:04.567Z,80.11
2019-03-25T22:40:02.935Z,80.29
2019-03-25T22:50:03.524Z,80.37
2019-03-25T23:00:03.569Z,80.41
2019-03-25T23:10:03.048Z,81.01
2019-03-25T23:20:02.807Z,81.58
2019-03-25T23:30:03.694Z,81.22
2019-03-25T23:40:02.836Z,80.85
2019-03-25T23:50:03.331Z,81.55
